sensor_id;sensor_type;location;lat;lon;timestamp;P1;durP1;ratioP1;P2;durP2;ratioP2
39370;SDS011;25099;51.946;4.838;2022-07-05T00:00:49;8.32;;;7.65;;
39370;SDS011;25099;51.946;4.838;2022-07-05T00:03:14;8.57;;;7.38;;
39370;SDS011;25099;51.946;4.838;2022-07-05T00:05:40;8.45;;;7.65;;
39370;SDS011;25099;51.946;4.838;2022-07-05T00:08:06;8.90;;;7.68;;
39370;SDS011;25099;51.946;4.838;2022-07-05T00:10:33;8.20;;;7.60;;
39370;SDS011;25099;51.946;4.838;2022-07-05T00:12:59;8.95;;;8.27;;
39370;SDS011;25099;51.946;4.838;2022-07-05T00:15:25;9.65;;;8.75;;
39370;SDS011;25099;51.946;4.838;2022-07-05T00:17:51;9.35;;;8.52;;
39370;SDS011;25099;51.946;4.838;2022-07-05T00:20:17;10.43;;;9.43;;
39370;SDS011;25099;51.946;4.838;2022-07-05T00:22:43;10.52;;;9.63;;
39370;SDS011;25099;51.946;4.838;2022-07-05T00:25:09;10.02;;;9.13;;
39370;SDS011;25099;51.946;4.838;2022-07-05T00:27:34;10.68;;;9.80;;
39370;SDS011;25099;51.946;4.838;2022-07-05T00:30:00;11.98;;;9.60;;
39370;SDS011;25099;51.946;4.838;2022-07-05T00:32:25;11.65;;;10.63;;
39370;SDS011;25099;51.946;4.838;2022-07-05T00:34:51;10.60;;;9.60;;
39370;SDS011;25099;51.946;4.838;2022-07-05T00:37:17;10.57;;;9.77;;
39370;SDS011;25099;51.946;4.838;2022-07-05T00:39:42;10.38;;;9.48;;
39370;SDS011;25099;51.946;4.838;2022-07-05T00:42:08;9.95;;;9.02;;
39370;SDS011;25099;51.946;4.838;2022-07-05T00:44:36;11.80;;;10.70;;
39370;SDS011;25099;51.946;4.838;2022-07-05T00:47:04;12.23;;;11.13;;
39370;SDS011;25099;51.946;4.838;2022-07-05T00:49:31;10.55;;;9.75;;
39370;SDS011;25099;51.946;4.838;2022-07-05T00:51:58;10.98;;;10.05;;
39370;SDS011;25099;51.946;4.838;2022-07-05T00:54:25;10.65;;;9.65;;
39370;SDS011;25099;51.946;4.838;2022-07-05T00:56:52;10.95;;;9.85;;
39370;SDS011;25099;51.946;4.838;2022-07-05T00:59:18;10.63;;;9.82;;
39370;SDS011;25099;51.946;4.838;2022-07-05T01:01:43;11.35;;;9.75;;
39370;SDS011;25099;51.946;4.838;2022-07-05T01:04:10;10.23;;;9.20;;
39370;SDS011;25099;51.946;4.838;2022-07-05T01:06:37;10.10;;;9.25;;
39370;SDS011;25099;51.946;4.838;2022-07-05T01:09:03;11.30;;;10.30;;
39370;SDS011;25099;51.946;4.838;2022-07-05T01:11:29;11.43;;;10.38;;
39370;SDS011;25099;51.946;4.838;2022-07-05T01:13:55;10.57;;;9.70;;
39370;SDS011;25099;51.946;4.838;2022-07-05T01:16:23;11.07;;;10.18;;
39370;SDS011;25099;51.946;4.838;2022-07-05T01:18:49;10.52;;;9.60;;
39370;SDS011;25099;51.946;4.838;2022-07-05T01:21:15;11.10;;;10.07;;
39370;SDS011;25099;51.946;4.838;2022-07-05T01:23:45;12.68;;;10.63;;
39370;SDS011;25099;51.946;4.838;2022-07-05T01:26:10;11.68;;;10.52;;
39370;SDS011;25099;51.946;4.838;2022-07-05T01:28:36;11.73;;;10.70;;
39370;SDS011;25099;51.946;4.838;2022-07-05T01:31:02;11.68;;;10.48;;
39370;SDS011;25099;51.946;4.838;2022-07-05T01:33:30;10.88;;;9.98;;
39370;SDS011;25099;51.946;4.838;2022-07-05T01:35:56;11.68;;;9.80;;
39370;SDS011;25099;51.946;4.838;2022-07-05T01:38:22;11.38;;;10.48;;
39370;SDS011;25099;51.946;4.838;2022-07-05T01:40:49;11.85;;;10.68;;
39370;SDS011;25099;51.946;4.838;2022-07-05T01:43:17;11.98;;;10.95;;
39370;SDS011;25099;51.946;4.838;2022-07-05T01:45:49;12.10;;;11.05;;
39370;SDS011;25099;51.946;4.838;2022-07-05T01:48:16;12.23;;;11.02;;
39370;SDS011;25099;51.946;4.838;2022-07-05T01:53:10;10.80;;;9.82;;
39370;SDS011;25099;51.946;4.838;2022-07-05T01:55:42;12.70;;;11.68;;
39370;SDS011;25099;51.946;4.838;2022-07-05T01:58:07;12.45;;;11.27;;
39370;SDS011;25099;51.946;4.838;2022-07-05T02:00:43;11.93;;;10.93;;
39370;SDS011;25099;51.946;4.838;2022-07-05T02:03:14;13.38;;;11.45;;
39370;SDS011;25099;51.946;4.838;2022-07-05T02:05:41;14.02;;;12.63;;
39370;SDS011;25099;51.946;4.838;2022-07-05T02:08:08;11.80;;;10.52;;
39370;SDS011;25099;51.946;4.838;2022-07-05T02:10:35;13.70;;;11.25;;
39370;SDS011;25099;51.946;4.838;2022-07-05T02:13:02;12.85;;;11.57;;
39370;SDS011;25099;51.946;4.838;2022-07-05T02:15:32;13.32;;;11.77;;
39370;SDS011;25099;51.946;4.838;2022-07-05T02:17:59;15.57;;;11.70;;
39370;SDS011;25099;51.946;4.838;2022-07-05T02:20:26;12.48;;;11.27;;
39370;SDS011;25099;51.946;4.838;2022-07-05T02:22:52;12.18;;;11.05;;
39370;SDS011;25099;51.946;4.838;2022-07-05T02:25:18;11.93;;;10.88;;
39370;SDS011;25099;51.946;4.838;2022-07-05T02:27:43;12.40;;;11.23;;
39370;SDS011;25099;51.946;4.838;2022-07-05T02:30:09;12.60;;;11.40;;
39370;SDS011;25099;51.946;4.838;2022-07-05T02:32:35;12.77;;;11.57;;
39370;SDS011;25099;51.946;4.838;2022-07-05T02:35:01;13.05;;;11.85;;
39370;SDS011;25099;51.946;4.838;2022-07-05T02:37:28;12.63;;;11.45;;
39370;SDS011;25099;51.946;4.838;2022-07-05T02:39:54;14.32;;;11.25;;
39370;SDS011;25099;51.946;4.838;2022-07-05T02:42:20;13.10;;;12.00;;
39370;SDS011;25099;51.946;4.838;2022-07-05T02:44:45;13.77;;;11.73;;
39370;SDS011;25099;51.946;4.838;2022-07-05T02:47:11;13.65;;;12.27;;
39370;SDS011;25099;51.946;4.838;2022-07-05T02:49:36;12.70;;;11.50;;
39370;SDS011;25099;51.946;4.838;2022-07-05T02:52:02;11.90;;;10.80;;
39370;SDS011;25099;51.946;4.838;2022-07-05T02:54:28;12.68;;;11.57;;
39370;SDS011;25099;51.946;4.838;2022-07-05T02:56:53;11.73;;;10.73;;
39370;SDS011;25099;51.946;4.838;2022-07-05T02:59:22;12.27;;;11.27;;
39370;SDS011;25099;51.946;4.838;2022-07-05T03:01:48;13.32;;;12.13;;
39370;SDS011;25099;51.946;4.838;2022-07-05T03:04:13;12.77;;;11.63;;
39370;SDS011;25099;51.946;4.838;2022-07-05T03:06:39;11.35;;;10.25;;
39370;SDS011;25099;51.946;4.838;2022-07-05T03:09:04;12.55;;;11.40;;
39370;SDS011;25099;51.946;4.838;2022-07-05T03:11:30;13.35;;;12.05;;
39370;SDS011;25099;51.946;4.838;2022-07-05T03:13:56;11.95;;;10.93;;
39370;SDS011;25099;51.946;4.838;2022-07-05T03:16:21;13.27;;;11.48;;
39370;SDS011;25099;51.946;4.838;2022-07-05T03:18:50;13.52;;;12.40;;
39370;SDS011;25099;51.946;4.838;2022-07-05T03:21:16;13.23;;;12.18;;
39370;SDS011;25099;51.946;4.838;2022-07-05T03:23:42;14.48;;;13.13;;
39370;SDS011;25099;51.946;4.838;2022-07-05T03:26:07;14.77;;;11.73;;
39370;SDS011;25099;51.946;4.838;2022-07-05T03:28:33;12.77;;;11.57;;
39370;SDS011;25099;51.946;4.838;2022-07-05T03:30:59;12.45;;;11.38;;
39370;SDS011;25099;51.946;4.838;2022-07-05T03:33:24;12.98;;;11.77;;
39370;SDS011;25099;51.946;4.838;2022-07-05T03:35:50;12.68;;;11.50;;
39370;SDS011;25099;51.946;4.838;2022-07-05T03:38:16;13.50;;;12.25;;
39370;SDS011;25099;51.946;4.838;2022-07-05T03:40:41;13.75;;;12.48;;
39370;SDS011;25099;51.946;4.838;2022-07-05T03:43:07;13.35;;;12.20;;
39370;SDS011;25099;51.946;4.838;2022-07-05T03:45:33;12.48;;;11.45;;
39370;SDS011;25099;51.946;4.838;2022-07-05T03:47:59;13.20;;;12.02;;
39370;SDS011;25099;51.946;4.838;2022-07-05T03:50:25;15.02;;;13.65;;
39370;SDS011;25099;51.946;4.838;2022-07-05T03:52:51;14.23;;;12.60;;
39370;SDS011;25099;51.946;4.838;2022-07-05T03:55:16;13.80;;;12.48;;
39370;SDS011;25099;51.946;4.838;2022-07-05T03:57:42;12.80;;;11.68;;
39370;SDS011;25099;51.946;4.838;2022-07-05T04:00:08;11.23;;;10.20;;
39370;SDS011;25099;51.946;4.838;2022-07-05T04:02:34;11.77;;;10.68;;
39370;SDS011;25099;51.946;4.838;2022-07-05T04:05:00;11.93;;;10.73;;
39370;SDS011;25099;51.946;4.838;2022-07-05T04:07:26;11.18;;;10.18;;
39370;SDS011;25099;51.946;4.838;2022-07-05T04:09:51;12.60;;;11.30;;
39370;SDS011;25099;51.946;4.838;2022-07-05T04:12:17;13.32;;;11.02;;
39370;SDS011;25099;51.946;4.838;2022-07-05T04:14:42;11.20;;;10.20;;
39370;SDS011;25099;51.946;4.838;2022-07-05T04:17:08;11.70;;;10.60;;
39370;SDS011;25099;51.946;4.838;2022-07-05T04:19:34;11.63;;;10.63;;
39370;SDS011;25099;51.946;4.838;2022-07-05T04:21:59;11.23;;;10.23;;
39370;SDS011;25099;51.946;4.838;2022-07-05T04:24:25;10.93;;;10.07;;
39370;SDS011;25099;51.946;4.838;2022-07-05T04:26:50;10.93;;;9.90;;
39370;SDS011;25099;51.946;4.838;2022-07-05T04:29:16;10.38;;;9.10;;
39370;SDS011;25099;51.946;4.838;2022-07-05T04:31:42;9.70;;;8.90;;
39370;SDS011;25099;51.946;4.838;2022-07-05T04:34:08;9.45;;;8.63;;
39370;SDS011;25099;51.946;4.838;2022-07-05T04:36:33;10.75;;;9.68;;
39370;SDS011;25099;51.946;4.838;2022-07-05T04:38:59;8.50;;;7.80;;
39370;SDS011;25099;51.946;4.838;2022-07-05T04:41:24;9.23;;;8.50;;
39370;SDS011;25099;51.946;4.838;2022-07-05T04:43:50;8.90;;;8.10;;
39370;SDS011;25099;51.946;4.838;2022-07-05T04:46:16;9.57;;;8.57;;
39370;SDS011;25099;51.946;4.838;2022-07-05T04:48:42;9.18;;;8.48;;
39370;SDS011;25099;51.946;4.838;2022-07-05T04:51:07;11.93;;;10.80;;
39370;SDS011;25099;51.946;4.838;2022-07-05T04:53:33;11.55;;;10.45;;
39370;SDS011;25099;51.946;4.838;2022-07-05T04:55:58;12.07;;;10.15;;
39370;SDS011;25099;51.946;4.838;2022-07-05T04:58:24;11.82;;;10.82;;
39370;SDS011;25099;51.946;4.838;2022-07-05T05:00:49;11.25;;;10.25;;
39370;SDS011;25099;51.946;4.838;2022-07-05T05:03:15;9.80;;;8.95;;
39370;SDS011;25099;51.946;4.838;2022-07-05T05:05:44;11.02;;;10.05;;
39370;SDS011;25099;51.946;4.838;2022-07-05T05:08:09;11.82;;;10.65;;
39370;SDS011;25099;51.946;4.838;2022-07-05T05:10:35;11.85;;;10.70;;
39370;SDS011;25099;51.946;4.838;2022-07-05T05:13:00;11.57;;;10.40;;
39370;SDS011;25099;51.946;4.838;2022-07-05T05:15:26;11.55;;;10.55;;
39370;SDS011;25099;51.946;4.838;2022-07-05T05:17:51;14.55;;;9.93;;
39370;SDS011;25099;51.946;4.838;2022-07-05T05:20:17;12.30;;;10.82;;
39370;SDS011;25099;51.946;4.838;2022-07-05T05:22:43;11.50;;;10.40;;
39370;SDS011;25099;51.946;4.838;2022-07-05T05:25:10;15.05;;;13.55;;
39370;SDS011;25099;51.946;4.838;2022-07-05T05:27:43;13.77;;;11.85;;
39370;SDS011;25099;51.946;4.838;2022-07-05T05:30:11;14.63;;;13.32;;
39370;SDS011;25099;51.946;4.838;2022-07-05T05:32:37;14.10;;;12.70;;
39370;SDS011;25099;51.946;4.838;2022-07-05T05:35:03;13.02;;;11.35;;
39370;SDS011;25099;51.946;4.838;2022-07-05T05:37:29;14.45;;;12.95;;
39370;SDS011;25099;51.946;4.838;2022-07-05T05:39:55;11.98;;;10.77;;
39370;SDS011;25099;51.946;4.838;2022-07-05T05:42:20;11.68;;;10.57;;
39370;SDS011;25099;51.946;4.838;2022-07-05T05:44:46;14.13;;;12.88;;
39370;SDS011;25099;51.946;4.838;2022-07-05T05:47:11;14.25;;;12.75;;
39370;SDS011;25099;51.946;4.838;2022-07-05T05:49:37;15.57;;;13.68;;
39370;SDS011;25099;51.946;4.838;2022-07-05T05:52:02;13.65;;;12.20;;
39370;SDS011;25099;51.946;4.838;2022-07-05T05:54:28;13.77;;;12.32;;
39370;SDS011;25099;51.946;4.838;2022-07-05T05:56:54;15.25;;;12.98;;
39370;SDS011;25099;51.946;4.838;2022-07-05T05:59:19;14.38;;;12.88;;
39370;SDS011;25099;51.946;4.838;2022-07-05T06:01:45;12.88;;;11.57;;
39370;SDS011;25099;51.946;4.838;2022-07-05T06:04:10;13.75;;;12.25;;
39370;SDS011;25099;51.946;4.838;2022-07-05T06:06:36;13.77;;;12.55;;
39370;SDS011;25099;51.946;4.838;2022-07-05T06:09:02;12.55;;;11.32;;
39370;SDS011;25099;51.946;4.838;2022-07-05T06:11:27;15.63;;;13.13;;
39370;SDS011;25099;51.946;4.838;2022-07-05T06:13:53;15.60;;;14.10;;
39370;SDS011;25099;51.946;4.838;2022-07-05T06:16:18;16.00;;;11.52;;
39370;SDS011;25099;51.946;4.838;2022-07-05T06:18:44;12.65;;;11.45;;
39370;SDS011;25099;51.946;4.838;2022-07-05T06:21:10;12.63;;;11.13;;
39370;SDS011;25099;51.946;4.838;2022-07-05T06:23:35;11.38;;;10.20;;
39370;SDS011;25099;51.946;4.838;2022-07-05T06:26:01;12.77;;;11.43;;
39370;SDS011;25099;51.946;4.838;2022-07-05T06:28:26;14.70;;;12.23;;
39370;SDS011;25099;51.946;4.838;2022-07-05T06:30:52;14.63;;;12.07;;
39370;SDS011;25099;51.946;4.838;2022-07-05T06:33:18;11.90;;;10.68;;
39370;SDS011;25099;51.946;4.838;2022-07-05T06:35:44;11.07;;;10.02;;
39370;SDS011;25099;51.946;4.838;2022-07-05T06:38:10;15.35;;;11.40;;
39370;SDS011;25099;51.946;4.838;2022-07-05T06:40:36;15.90;;;12.48;;
39370;SDS011;25099;51.946;4.838;2022-07-05T06:43:05;9.73;;;8.77;;
39370;SDS011;25099;51.946;4.838;2022-07-05T06:45:32;11.80;;;10.57;;
39370;SDS011;25099;51.946;4.838;2022-07-05T06:47:59;10.75;;;9.65;;
39370;SDS011;25099;51.946;4.838;2022-07-05T06:50:26;11.73;;;10.55;;
39370;SDS011;25099;51.946;4.838;2022-07-05T06:52:53;11.85;;;10.68;;
39370;SDS011;25099;51.946;4.838;2022-07-05T06:55:19;10.63;;;9.23;;
39370;SDS011;25099;51.946;4.838;2022-07-05T06:57:45;9.60;;;8.55;;
39370;SDS011;25099;51.946;4.838;2022-07-05T07:00:11;8.38;;;6.88;;
39370;SDS011;25099;51.946;4.838;2022-07-05T07:02:38;9.45;;;8.52;;
39370;SDS011;25099;51.946;4.838;2022-07-05T07:05:03;12.05;;;7.57;;
39370;SDS011;25099;51.946;4.838;2022-07-05T07:07:32;11.60;;;9.52;;
39370;SDS011;25099;51.946;4.838;2022-07-05T07:10:17;12.02;;;8.90;;
39370;SDS011;25099;51.946;4.838;2022-07-05T07:12:43;14.88;;;9.60;;
39370;SDS011;25099;51.946;4.838;2022-07-05T07:15:08;8.75;;;7.90;;
39370;SDS011;25099;51.946;4.838;2022-07-05T07:17:35;9.98;;;9.00;;
39370;SDS011;25099;51.946;4.838;2022-07-05T07:20:02;7.57;;;6.97;;
39370;SDS011;25099;51.946;4.838;2022-07-05T07:22:28;12.43;;;8.43;;
39370;SDS011;25099;51.946;4.838;2022-07-05T07:24:54;8.52;;;7.25;;
39370;SDS011;25099;51.946;4.838;2022-07-05T07:27:19;8.95;;;7.55;;
39370;SDS011;25099;51.946;4.838;2022-07-05T07:29:45;8.55;;;7.55;;
39370;SDS011;25099;51.946;4.838;2022-07-05T07:32:11;6.50;;;5.85;;
39370;SDS011;25099;51.946;4.838;2022-07-05T07:34:38;7.30;;;6.47;;
39370;SDS011;25099;51.946;4.838;2022-07-05T07:37:04;5.70;;;5.10;;
39370;SDS011;25099;51.946;4.838;2022-07-05T07:39:31;4.82;;;4.43;;
39370;SDS011;25099;51.946;4.838;2022-07-05T07:41:59;5.05;;;4.45;;
39370;SDS011;25099;51.946;4.838;2022-07-05T07:44:25;4.13;;;3.72;;
39370;SDS011;25099;51.946;4.838;2022-07-05T07:46:50;4.20;;;3.90;;
39370;SDS011;25099;51.946;4.838;2022-07-05T07:49:16;4.20;;;3.80;;
39370;SDS011;25099;51.946;4.838;2022-07-05T07:51:42;4.57;;;3.47;;
39370;SDS011;25099;51.946;4.838;2022-07-05T07:54:08;5.80;;;2.78;;
39370;SDS011;25099;51.946;4.838;2022-07-05T07:56:34;3.80;;;3.15;;
39370;SDS011;25099;51.946;4.838;2022-07-05T07:58:59;3.28;;;2.72;;
39370;SDS011;25099;51.946;4.838;2022-07-05T08:01:25;4.38;;;2.30;;
39370;SDS011;25099;51.946;4.838;2022-07-05T08:03:51;4.10;;;1.70;;
39370;SDS011;25099;51.946;4.838;2022-07-05T08:06:16;2.00;;;1.80;;
39370;SDS011;25099;51.946;4.838;2022-07-05T08:08:42;2.03;;;1.88;;
39370;SDS011;25099;51.946;4.838;2022-07-05T08:11:13;2.88;;;2.00;;
39370;SDS011;25099;51.946;4.838;2022-07-05T08:13:39;1.70;;;1.60;;
39370;SDS011;25099;51.946;4.838;2022-07-05T08:16:06;3.03;;;2.17;;
39370;SDS011;25099;51.946;4.838;2022-07-05T08:18:33;4.70;;;2.70;;
39370;SDS011;25099;51.946;4.838;2022-07-05T08:21:18;2.55;;;1.42;;
39370;SDS011;25099;51.946;4.838;2022-07-05T08:23:55;1.33;;;0.90;;
39370;SDS011;25099;51.946;4.838;2022-07-05T08:26:25;1.83;;;0.90;;
39370;SDS011;25099;51.946;4.838;2022-07-05T08:28:51;1.23;;;0.90;;
39370;SDS011;25099;51.946;4.838;2022-07-05T08:31:17;3.25;;;1.08;;
39370;SDS011;25099;51.946;4.838;2022-07-05T08:33:43;4.70;;;1.00;;
39370;SDS011;25099;51.946;4.838;2022-07-05T08:36:09;2.00;;;1.20;;
39370;SDS011;25099;51.946;4.838;2022-07-05T08:38:34;2.65;;;1.23;;
39370;SDS011;25099;51.946;4.838;2022-07-05T08:41:00;2.70;;;1.17;;
39370;SDS011;25099;51.946;4.838;2022-07-05T08:43:28;3.03;;;1.30;;
39370;SDS011;25099;51.946;4.838;2022-07-05T08:45:54;2.78;;;1.20;;
39370;SDS011;25099;51.946;4.838;2022-07-05T08:48:21;2.72;;;1.40;;
39370;SDS011;25099;51.946;4.838;2022-07-05T08:50:50;1.23;;;1.20;;
39370;SDS011;25099;51.946;4.838;2022-07-05T08:53:19;3.72;;;1.25;;
39370;SDS011;25099;51.946;4.838;2022-07-05T08:55:49;4.47;;;1.65;;
39370;SDS011;25099;51.946;4.838;2022-07-05T08:58:15;3.50;;;1.60;;
39370;SDS011;25099;51.946;4.838;2022-07-05T09:00:42;1.83;;;1.33;;
39370;SDS011;25099;51.946;4.838;2022-07-05T09:03:08;3.42;;;1.50;;
39370;SDS011;25099;51.946;4.838;2022-07-05T09:05:42;4.50;;;1.33;;
39370;SDS011;25099;51.946;4.838;2022-07-05T09:08:13;1.85;;;0.95;;
39370;SDS011;25099;51.946;4.838;2022-07-05T09:10:42;5.32;;;1.67;;
39370;SDS011;25099;51.946;4.838;2022-07-05T09:13:08;2.80;;;1.13;;
39370;SDS011;25099;51.946;4.838;2022-07-05T09:15:37;4.00;;;1.00;;
39370;SDS011;25099;51.946;4.838;2022-07-05T09:18:03;2.40;;;1.40;;
39370;SDS011;25099;51.946;4.838;2022-07-05T09:20:29;2.10;;;1.67;;
39370;SDS011;25099;51.946;4.838;2022-07-05T09:22:56;2.95;;;1.48;;
39370;SDS011;25099;51.946;4.838;2022-07-05T09:25:23;2.65;;;1.40;;
39370;SDS011;25099;51.946;4.838;2022-07-05T09:30:29;2.38;;;1.30;;
39370;SDS011;25099;51.946;4.838;2022-07-05T09:35:37;5.82;;;1.50;;
39370;SDS011;25099;51.946;4.838;2022-07-05T09:38:07;1.65;;;1.10;;
39370;SDS011;25099;51.946;4.838;2022-07-05T09:40:49;2.75;;;1.42;;
39370;SDS011;25099;51.946;4.838;2022-07-05T09:43:16;2.33;;;1.10;;
39370;SDS011;25099;51.946;4.838;2022-07-05T09:48:28;1.52;;;1.13;;
39370;SDS011;25099;51.946;4.838;2022-07-05T09:51:08;1.60;;;1.40;;
39370;SDS011;25099;51.946;4.838;2022-07-05T09:53:44;1.30;;;1.00;;
39370;SDS011;25099;51.946;4.838;2022-07-05T09:56:10;4.00;;;1.00;;
39370;SDS011;25099;51.946;4.838;2022-07-05T09:58:36;6.57;;;1.17;;
39370;SDS011;25099;51.946;4.838;2022-07-05T10:01:05;3.83;;;1.30;;
39370;SDS011;25099;51.946;4.838;2022-07-05T10:03:51;3.08;;;1.40;;
39370;SDS011;25099;51.946;4.838;2022-07-05T10:06:19;2.20;;;1.00;;
39370;SDS011;25099;51.946;4.838;2022-07-05T10:08:46;4.90;;;1.85;;
39370;SDS011;25099;51.946;4.838;2022-07-05T10:11:15;5.65;;;1.35;;
39370;SDS011;25099;51.946;4.838;2022-07-05T10:13:43;2.08;;;1.00;;
39370;SDS011;25099;51.946;4.838;2022-07-05T10:16:13;2.00;;;0.73;;
39370;SDS011;25099;51.946;4.838;2022-07-05T10:18:46;2.28;;;1.13;;
39370;SDS011;25099;51.946;4.838;2022-07-05T10:21:13;5.18;;;1.02;;
39370;SDS011;25099;51.946;4.838;2022-07-05T10:23:49;6.22;;;1.10;;
39370;SDS011;25099;51.946;4.838;2022-07-05T10:26:18;2.50;;;1.17;;
39370;SDS011;25099;51.946;4.838;2022-07-05T10:28:46;8.40;;;1.38;;
39370;SDS011;25099;51.946;4.838;2022-07-05T10:31:14;3.58;;;0.88;;
39370;SDS011;25099;51.946;4.838;2022-07-05T10:33:42;2.65;;;1.23;;
39370;SDS011;25099;51.946;4.838;2022-07-05T10:36:11;5.78;;;1.35;;
39370;SDS011;25099;51.946;4.838;2022-07-05T10:38:38;1.08;;;0.73;;
39370;SDS011;25099;51.946;4.838;2022-07-05T10:41:07;1.38;;;1.00;;
39370;SDS011;25099;51.946;4.838;2022-07-05T10:43:35;1.55;;;0.93;;
39370;SDS011;25099;51.946;4.838;2022-07-05T10:46:02;6.20;;;1.02;;
39370;SDS011;25099;51.946;4.838;2022-07-05T10:48:32;2.97;;;1.13;;
39370;SDS011;25099;51.946;4.838;2022-07-05T10:50:58;3.45;;;1.30;;
39370;SDS011;25099;51.946;4.838;2022-07-05T10:56:13;3.47;;;1.10;;
39370;SDS011;25099;51.946;4.838;2022-07-05T10:58:45;4.43;;;1.10;;
39370;SDS011;25099;51.946;4.838;2022-07-05T11:03:41;6.15;;;0.88;;
39370;SDS011;25099;51.946;4.838;2022-07-05T11:06:31;6.18;;;1.38;;
39370;SDS011;25099;51.946;4.838;2022-07-05T11:11:32;4.15;;;1.13;;
39370;SDS011;25099;51.946;4.838;2022-07-05T11:14:00;2.35;;;1.48;;
39370;SDS011;25099;51.946;4.838;2022-07-05T11:16:33;3.55;;;0.93;;
39370;SDS011;25099;51.946;4.838;2022-07-05T11:19:07;8.55;;;1.23;;
39370;SDS011;25099;51.946;4.838;2022-07-05T11:21:38;1.95;;;1.42;;
39370;SDS011;25099;51.946;4.838;2022-07-05T11:24:18;3.35;;;1.35;;
39370;SDS011;25099;51.946;4.838;2022-07-05T11:26:50;2.20;;;0.90;;
39370;SDS011;25099;51.946;4.838;2022-07-05T11:32:08;8.23;;;1.48;;
39370;SDS011;25099;51.946;4.838;2022-07-05T11:34:36;1.80;;;1.13;;
39370;SDS011;25099;51.946;4.838;2022-07-05T11:37:44;1.95;;;0.90;;
39370;SDS011;25099;51.946;4.838;2022-07-05T11:42:46;6.70;;;1.10;;
39370;SDS011;25099;51.946;4.838;2022-07-05T11:45:13;1.75;;;1.08;;
39370;SDS011;25099;51.946;4.838;2022-07-05T11:47:39;2.13;;;0.90;;
39370;SDS011;25099;51.946;4.838;2022-07-05T11:50:06;2.65;;;1.00;;
39370;SDS011;25099;51.946;4.838;2022-07-05T11:52:32;1.65;;;0.88;;
39370;SDS011;25099;51.946;4.838;2022-07-05T11:54:59;3.45;;;0.80;;
39370;SDS011;25099;51.946;4.838;2022-07-05T11:57:26;1.67;;;0.75;;
39370;SDS011;25099;51.946;4.838;2022-07-05T11:59:52;1.95;;;0.80;;
39370;SDS011;25099;51.946;4.838;2022-07-05T12:02:18;4.82;;;1.25;;
39370;SDS011;25099;51.946;4.838;2022-07-05T12:04:53;2.53;;;0.70;;
39370;SDS011;25099;51.946;4.838;2022-07-05T12:07:30;1.48;;;0.98;;
39370;SDS011;25099;51.946;4.838;2022-07-05T12:09:57;1.38;;;0.80;;
39370;SDS011;25099;51.946;4.838;2022-07-05T12:12:42;1.60;;;0.75;;
39370;SDS011;25099;51.946;4.838;2022-07-05T12:15:12;1.55;;;0.90;;
39370;SDS011;25099;51.946;4.838;2022-07-05T12:17:43;1.00;;;0.57;;
39370;SDS011;25099;51.946;4.838;2022-07-05T12:20:10;6.97;;;1.35;;
39370;SDS011;25099;51.946;4.838;2022-07-05T12:22:39;15.77;;;1.25;;
39370;SDS011;25099;51.946;4.838;2022-07-05T12:25:05;6.05;;;1.13;;
39370;SDS011;25099;51.946;4.838;2022-07-05T12:27:35;0.50;;;0.50;;
39370;SDS011;25099;51.946;4.838;2022-07-05T12:30:02;1.85;;;0.82;;
39370;SDS011;25099;51.946;4.838;2022-07-05T12:32:29;0.88;;;0.60;;
39370;SDS011;25099;51.946;4.838;2022-07-05T12:34:56;1.33;;;0.70;;
39370;SDS011;25099;51.946;4.838;2022-07-05T12:37:27;3.17;;;0.52;;
39370;SDS011;25099;51.946;4.838;2022-07-05T12:40:06;2.15;;;0.50;;
39370;SDS011;25099;51.946;4.838;2022-07-05T12:42:35;3.33;;;0.70;;
39370;SDS011;25099;51.946;4.838;2022-07-05T12:45:06;1.13;;;0.65;;
39370;SDS011;25099;51.946;4.838;2022-07-05T12:47:48;1.48;;;0.70;;
39370;SDS011;25099;51.946;4.838;2022-07-05T12:50:21;0.95;;;0.50;;
39370;SDS011;25099;51.946;4.838;2022-07-05T12:55:51;6.93;;;0.70;;
39370;SDS011;25099;51.946;4.838;2022-07-05T12:58:50;3.67;;;0.70;;
39370;SDS011;25099;51.946;4.838;2022-07-05T13:09:16;2.65;;;0.80;;
39370;SDS011;25099;51.946;4.838;2022-07-05T13:14:43;2.88;;;0.63;;
39370;SDS011;25099;51.946;4.838;2022-07-05T13:17:10;4.20;;;0.80;;
39370;SDS011;25099;51.946;4.838;2022-07-05T13:19:41;1.33;;;0.80;;
39370;SDS011;25099;51.946;4.838;2022-07-05T13:22:09;5.45;;;0.60;;
39370;SDS011;25099;51.946;4.838;2022-07-05T13:24:34;1.80;;;0.60;;
39370;SDS011;25099;51.946;4.838;2022-07-05T13:27:01;1.25;;;0.73;;
39370;SDS011;25099;51.946;4.838;2022-07-05T13:29:27;1.83;;;0.93;;
39370;SDS011;25099;51.946;4.838;2022-07-05T13:31:53;1.63;;;1.00;;
39370;SDS011;25099;51.946;4.838;2022-07-05T13:34:19;7.32;;;0.90;;
39370;SDS011;25099;51.946;4.838;2022-07-05T13:36:44;2.95;;;0.63;;
39370;SDS011;25099;51.946;4.838;2022-07-05T13:39:10;1.27;;;0.60;;
39370;SDS011;25099;51.946;4.838;2022-07-05T13:41:36;3.28;;;0.60;;
39370;SDS011;25099;51.946;4.838;2022-07-05T13:44:02;1.30;;;0.80;;
39370;SDS011;25099;51.946;4.838;2022-07-05T13:46:28;0.50;;;0.43;;
39370;SDS011;25099;51.946;4.838;2022-07-05T13:48:54;1.10;;;0.70;;
39370;SDS011;25099;51.946;4.838;2022-07-05T13:51:19;0.70;;;0.47;;
39370;SDS011;25099;51.946;4.838;2022-07-05T13:53:45;1.80;;;1.05;;
39370;SDS011;25099;51.946;4.838;2022-07-05T13:56:10;1.00;;;0.80;;
39370;SDS011;25099;51.946;4.838;2022-07-05T13:58:36;5.35;;;0.95;;
39370;SDS011;25099;51.946;4.838;2022-07-05T14:01:02;1.77;;;0.80;;
39370;SDS011;25099;51.946;4.838;2022-07-05T14:03:28;2.53;;;0.90;;
39370;SDS011;25099;51.946;4.838;2022-07-05T14:05:54;2.25;;;0.70;;
39370;SDS011;25099;51.946;4.838;2022-07-05T14:08:20;3.25;;;1.77;;
39370;SDS011;25099;51.946;4.838;2022-07-05T14:10:47;1.95;;;0.70;;
39370;SDS011;25099;51.946;4.838;2022-07-05T14:13:16;2.37;;;0.90;;
39370;SDS011;25099;51.946;4.838;2022-07-05T14:15:45;3.28;;;1.25;;
39370;SDS011;25099;51.946;4.838;2022-07-05T14:18:12;3.08;;;0.90;;
39370;SDS011;25099;51.946;4.838;2022-07-05T14:20:39;3.17;;;0.85;;
39370;SDS011;25099;51.946;4.838;2022-07-05T14:23:04;2.38;;;0.88;;
39370;SDS011;25099;51.946;4.838;2022-07-05T14:25:33;2.55;;;1.02;;
39370;SDS011;25099;51.946;4.838;2022-07-05T14:27:58;1.58;;;0.85;;
39370;SDS011;25099;51.946;4.838;2022-07-05T14:30:24;4.50;;;1.00;;
39370;SDS011;25099;51.946;4.838;2022-07-05T14:32:52;3.30;;;1.10;;
39370;SDS011;25099;51.946;4.838;2022-07-05T14:35:17;1.67;;;1.02;;
39370;SDS011;25099;51.946;4.838;2022-07-05T14:37:43;5.50;;;0.90;;
39370;SDS011;25099;51.946;4.838;2022-07-05T14:40:09;2.65;;;0.77;;
39370;SDS011;25099;51.946;4.838;2022-07-05T14:42:35;1.80;;;0.93;;
39370;SDS011;25099;51.946;4.838;2022-07-05T14:45:00;4.05;;;0.98;;
39370;SDS011;25099;51.946;4.838;2022-07-05T14:47:26;2.30;;;0.82;;
39370;SDS011;25099;51.946;4.838;2022-07-05T14:49:52;5.35;;;1.15;;
39370;SDS011;25099;51.946;4.838;2022-07-05T14:52:18;1.88;;;1.00;;
39370;SDS011;25099;51.946;4.838;2022-07-05T14:54:45;1.88;;;1.30;;
39370;SDS011;25099;51.946;4.838;2022-07-05T14:57:10;3.30;;;1.13;;
39370;SDS011;25099;51.946;4.838;2022-07-05T14:59:36;5.00;;;1.10;;
39370;SDS011;25099;51.946;4.838;2022-07-05T15:02:01;2.58;;;1.10;;
39370;SDS011;25099;51.946;4.838;2022-07-05T15:04:29;3.50;;;1.25;;
39370;SDS011;25099;51.946;4.838;2022-07-05T15:06:54;1.60;;;0.90;;
39370;SDS011;25099;51.946;4.838;2022-07-05T15:09:20;0.70;;;0.70;;
39370;SDS011;25099;51.946;4.838;2022-07-05T15:11:46;4.95;;;1.52;;
39370;SDS011;25099;51.946;4.838;2022-07-05T15:14:12;5.57;;;1.58;;
39370;SDS011;25099;51.946;4.838;2022-07-05T15:16:37;2.40;;;0.88;;